sensor_id;sensor_type;location;lat;lon;timestamp;P1;durP1;ratioP1;P2;durP2;ratioP2
71969;SDS011;59838;52.152;5.436;2023-08-17T00:01:11;5.38;;;1.23;;
71969;SDS011;59838;52.152;5.436;2023-08-17T00:03:38;5.93;;;1.98;;
71969;SDS011;59838;52.152;5.436;2023-08-17T00:06:04;4.60;;;1.70;;
71969;SDS011;59838;52.152;5.436;2023-08-17T00:08:31;3.75;;;1.17;;
71969;SDS011;59838;52.152;5.436;2023-08-17T00:10:57;4.70;;;1.25;;
71969;SDS011;59838;52.152;5.436;2023-08-17T00:13:23;6.63;;;1.88;;
71969;SDS011;59838;52.152;5.436;2023-08-17T00:15:50;3.67;;;2.13;;
71969;SDS011;59838;52.152;5.436;2023-08-17T00:18:16;4.37;;;1.10;;
71969;SDS011;59838;52.152;5.436;2023-08-17T00:20:43;6.13;;;1.20;;
71969;SDS011;59838;52.152;5.436;2023-08-17T00:23:10;9.10;;;1.63;;
71969;SDS011;59838;52.152;5.436;2023-08-17T00:25:37;3.47;;;1.33;;
71969;SDS011;59838;52.152;5.436;2023-08-17T00:28:03;3.03;;;1.00;;
71969;SDS011;59838;52.152;5.436;2023-08-17T00:30:30;1.87;;;1.00;;
71969;SDS011;59838;52.152;5.436;2023-08-17T00:32:57;1.95;;;1.45;;
71969;SDS011;59838;52.152;5.436;2023-08-17T00:35:23;5.78;;;1.60;;
71969;SDS011;59838;52.152;5.436;2023-08-17T00:37:50;4.72;;;1.30;;
71969;SDS011;59838;52.152;5.436;2023-08-17T00:40:16;6.10;;;1.33;;
71969;SDS011;59838;52.152;5.436;2023-08-17T00:42:43;6.53;;;1.20;;
71969;SDS011;59838;52.152;5.436;2023-08-17T00:45:09;2.05;;;1.17;;
71969;SDS011;59838;52.152;5.436;2023-08-17T00:47:36;5.82;;;1.15;;
71969;SDS011;59838;52.152;5.436;2023-08-17T00:50:03;5.38;;;1.13;;
71969;SDS011;59838;52.152;5.436;2023-08-17T00:52:30;3.72;;;1.73;;
71969;SDS011;59838;52.152;5.436;2023-08-17T00:54:58;5.77;;;1.20;;
71969;SDS011;59838;52.152;5.436;2023-08-17T00:57:27;3.47;;;1.17;;
71969;SDS011;59838;52.152;5.436;2023-08-17T00:59:54;5.95;;;1.55;;
71969;SDS011;59838;52.152;5.436;2023-08-17T01:02:31;2.70;;;1.23;;
71969;SDS011;59838;52.152;5.436;2023-08-17T01:04:57;4.82;;;1.17;;
71969;SDS011;59838;52.152;5.436;2023-08-17T01:07:25;4.87;;;1.23;;
71969;SDS011;59838;52.152;5.436;2023-08-17T01:09:51;3.03;;;1.30;;
71969;SDS011;59838;52.152;5.436;2023-08-17T01:15:08;2.25;;;1.20;;
71969;SDS011;59838;52.152;5.436;2023-08-17T01:20:10;3.13;;;1.00;;
71969;SDS011;59838;52.152;5.436;2023-08-17T01:22:44;4.80;;;1.38;;
71969;SDS011;59838;52.152;5.436;2023-08-17T01:25:14;3.35;;;1.10;;
71969;SDS011;59838;52.152;5.436;2023-08-17T01:27:41;2.85;;;1.00;;
71969;SDS011;59838;52.152;5.436;2023-08-17T01:30:10;4.15;;;0.98;;
71969;SDS011;59838;52.152;5.436;2023-08-17T01:32:40;2.63;;;1.00;;
71969;SDS011;59838;52.152;5.436;2023-08-17T01:35:16;3.00;;;1.10;;
71969;SDS011;59838;52.152;5.436;2023-08-17T01:37:45;3.28;;;1.25;;
71969;SDS011;59838;52.152;5.436;2023-08-17T01:40:12;4.30;;;1.40;;
71969;SDS011;59838;52.152;5.436;2023-08-17T01:42:40;5.55;;;1.48;;
71969;SDS011;59838;52.152;5.436;2023-08-17T01:45:07;4.17;;;0.90;;
71969;SDS011;59838;52.152;5.436;2023-08-17T01:47:34;5.80;;;1.60;;
71969;SDS011;59838;52.152;5.436;2023-08-17T01:50:01;5.35;;;1.15;;
71969;SDS011;59838;52.152;5.436;2023-08-17T01:52:28;3.65;;;1.35;;
71969;SDS011;59838;52.152;5.436;2023-08-17T01:54:54;4.60;;;1.50;;
71969;SDS011;59838;52.152;5.436;2023-08-17T01:57:21;4.50;;;1.60;;
71969;SDS011;59838;52.152;5.436;2023-08-17T01:59:47;3.35;;;1.42;;
71969;SDS011;59838;52.152;5.436;2023-08-17T02:02:14;3.35;;;1.33;;
71969;SDS011;59838;52.152;5.436;2023-08-17T02:04:41;4.97;;;1.58;;
71969;SDS011;59838;52.152;5.436;2023-08-17T02:07:07;3.38;;;1.52;;
71969;SDS011;59838;52.152;5.436;2023-08-17T02:09:33;5.00;;;1.97;;
71969;SDS011;59838;52.152;5.436;2023-08-17T02:12:00;6.38;;;2.05;;
71969;SDS011;59838;52.152;5.436;2023-08-17T02:14:26;5.55;;;1.80;;
71969;SDS011;59838;52.152;5.436;2023-08-17T02:16:53;3.78;;;1.50;;
71969;SDS011;59838;52.152;5.436;2023-08-17T02:19:19;5.18;;;1.83;;
71969;SDS011;59838;52.152;5.436;2023-08-17T02:21:47;3.03;;;1.70;;
71969;SDS011;59838;52.152;5.436;2023-08-17T02:24:13;6.18;;;2.15;;
71969;SDS011;59838;52.152;5.436;2023-08-17T02:26:40;5.60;;;1.70;;
71969;SDS011;59838;52.152;5.436;2023-08-17T02:29:07;6.95;;;1.98;;
71969;SDS011;59838;52.152;5.436;2023-08-17T02:31:33;2.97;;;1.70;;
71969;SDS011;59838;52.152;5.436;2023-08-17T02:34:00;6.70;;;1.93;;
71969;SDS011;59838;52.152;5.436;2023-08-17T02:36:31;2.83;;;1.70;;
71969;SDS011;59838;52.152;5.436;2023-08-17T02:38:59;3.10;;;1.80;;
71969;SDS011;59838;52.152;5.436;2023-08-17T02:41:26;6.60;;;1.77;;
71969;SDS011;59838;52.152;5.436;2023-08-17T02:43:52;2.75;;;1.80;;
71969;SDS011;59838;52.152;5.436;2023-08-17T02:46:19;4.97;;;1.77;;
71969;SDS011;59838;52.152;5.436;2023-08-17T02:48:45;3.67;;;1.52;;
71969;SDS011;59838;52.152;5.436;2023-08-17T02:51:12;5.57;;;1.70;;
71969;SDS011;59838;52.152;5.436;2023-08-17T02:53:38;1.98;;;1.33;;
71969;SDS011;59838;52.152;5.436;2023-08-17T02:56:05;2.53;;;1.50;;
71969;SDS011;59838;52.152;5.436;2023-08-17T02:58:32;5.80;;;1.50;;
71969;SDS011;59838;52.152;5.436;2023-08-17T03:00:58;2.97;;;1.15;;
71969;SDS011;59838;52.152;5.436;2023-08-17T03:03:28;3.42;;;1.48;;
71969;SDS011;59838;52.152;5.436;2023-08-17T03:05:54;4.57;;;1.15;;
71969;SDS011;59838;52.152;5.436;2023-08-17T03:08:21;4.88;;;1.45;;
71969;SDS011;59838;52.152;5.436;2023-08-17T03:10:47;6.77;;;1.30;;
71969;SDS011;59838;52.152;5.436;2023-08-17T03:13:14;5.20;;;1.20;;
71969;SDS011;59838;52.152;5.436;2023-08-17T03:15:40;2.30;;;1.10;;
71969;SDS011;59838;52.152;5.436;2023-08-17T03:18:07;5.20;;;1.50;;
71969;SDS011;59838;52.152;5.436;2023-08-17T03:20:33;3.80;;;1.58;;
71969;SDS011;59838;52.152;5.436;2023-08-17T03:23:00;6.13;;;1.87;;
71969;SDS011;59838;52.152;5.436;2023-08-17T03:25:26;5.25;;;1.58;;
71969;SDS011;59838;52.152;5.436;2023-08-17T03:27:53;7.40;;;1.80;;
71969;SDS011;59838;52.152;5.436;2023-08-17T03:30:20;6.20;;;1.55;;
71969;SDS011;59838;52.152;5.436;2023-08-17T03:32:46;2.40;;;1.30;;
71969;SDS011;59838;52.152;5.436;2023-08-17T03:35:13;7.77;;;1.70;;
71969;SDS011;59838;52.152;5.436;2023-08-17T03:37:39;4.45;;;1.08;;
71969;SDS011;59838;52.152;5.436;2023-08-17T03:40:06;4.85;;;1.30;;
71969;SDS011;59838;52.152;5.436;2023-08-17T03:42:33;2.13;;;1.35;;
71969;SDS011;59838;52.152;5.436;2023-08-17T03:45:00;4.43;;;1.55;;
71969;SDS011;59838;52.152;5.436;2023-08-17T03:47:26;3.43;;;1.27;;
71969;SDS011;59838;52.152;5.436;2023-08-17T03:49:53;3.45;;;1.42;;
71969;SDS011;59838;52.152;5.436;2023-08-17T03:52:19;4.75;;;1.20;;
71969;SDS011;59838;52.152;5.436;2023-08-17T03:54:46;3.25;;;1.27;;
71969;SDS011;59838;52.152;5.436;2023-08-17T03:57:12;7.28;;;1.95;;
71969;SDS011;59838;52.152;5.436;2023-08-17T03:59:39;2.83;;;1.30;;
71969;SDS011;59838;52.152;5.436;2023-08-17T04:02:07;2.58;;;1.13;;
71969;SDS011;59838;52.152;5.436;2023-08-17T04:04:33;3.28;;;1.10;;
71969;SDS011;59838;52.152;5.436;2023-08-17T04:07:00;2.25;;;0.80;;
71969;SDS011;59838;52.152;5.436;2023-08-17T04:09:26;2.22;;;1.20;;
71969;SDS011;59838;52.152;5.436;2023-08-17T04:11:53;2.53;;;1.00;;
71969;SDS011;59838;52.152;5.436;2023-08-17T04:14:21;2.45;;;0.80;;
71969;SDS011;59838;52.152;5.436;2023-08-17T04:16:47;3.83;;;1.27;;
71969;SDS011;59838;52.152;5.436;2023-08-17T04:19:14;3.92;;;0.95;;
71969;SDS011;59838;52.152;5.436;2023-08-17T04:21:40;3.85;;;1.20;;
71969;SDS011;59838;52.152;5.436;2023-08-17T04:24:07;2.80;;;0.80;;
71969;SDS011;59838;52.152;5.436;2023-08-17T04:26:33;4.95;;;1.13;;
71969;SDS011;59838;52.152;5.436;2023-08-17T04:29:00;2.03;;;1.20;;
71969;SDS011;59838;52.152;5.436;2023-08-17T04:31:26;4.47;;;0.70;;
71969;SDS011;59838;52.152;5.436;2023-08-17T04:33:53;3.20;;;0.73;;
71969;SDS011;59838;52.152;5.436;2023-08-17T04:36:19;3.83;;;0.67;;
71969;SDS011;59838;52.152;5.436;2023-08-17T04:38:46;2.80;;;0.70;;
71969;SDS011;59838;52.152;5.436;2023-08-17T04:41:12;1.15;;;0.60;;
71969;SDS011;59838;52.152;5.436;2023-08-17T04:43:39;2.75;;;0.50;;
71969;SDS011;59838;52.152;5.436;2023-08-17T04:46:06;7.28;;;1.40;;
71969;SDS011;59838;52.152;5.436;2023-08-17T04:48:33;4.27;;;0.97;;
71969;SDS011;59838;52.152;5.436;2023-08-17T04:50:59;3.20;;;0.95;;
71969;SDS011;59838;52.152;5.436;2023-08-17T04:53:26;12.35;;;0.98;;
71969;SDS011;59838;52.152;5.436;2023-08-17T04:55:52;2.88;;;0.70;;
71969;SDS011;59838;52.152;5.436;2023-08-17T04:58:18;5.90;;;0.70;;
71969;SDS011;59838;52.152;5.436;2023-08-17T05:00:45;1.30;;;0.70;;
71969;SDS011;59838;52.152;5.436;2023-08-17T05:03:12;6.32;;;0.98;;
71969;SDS011;59838;52.152;5.436;2023-08-17T05:05:58;2.70;;;0.70;;
71969;SDS011;59838;52.152;5.436;2023-08-17T05:08:24;4.13;;;0.50;;
71969;SDS011;59838;52.152;5.436;2023-08-17T05:10:51;3.83;;;1.00;;
71969;SDS011;59838;52.152;5.436;2023-08-17T05:13:17;5.60;;;0.90;;
71969;SDS011;59838;52.152;5.436;2023-08-17T05:15:45;4.35;;;0.93;;
71969;SDS011;59838;52.152;5.436;2023-08-17T05:18:11;3.35;;;0.75;;
71969;SDS011;59838;52.152;5.436;2023-08-17T05:20:38;3.58;;;0.68;;
71969;SDS011;59838;52.152;5.436;2023-08-17T05:23:04;2.97;;;0.77;;
71969;SDS011;59838;52.152;5.436;2023-08-17T05:25:31;4.37;;;0.90;;
71969;SDS011;59838;52.152;5.436;2023-08-17T05:27:57;3.15;;;0.80;;
71969;SDS011;59838;52.152;5.436;2023-08-17T05:30:24;8.93;;;1.10;;
71969;SDS011;59838;52.152;5.436;2023-08-17T05:32:50;5.20;;;1.27;;
71969;SDS011;59838;52.152;5.436;2023-08-17T05:35:17;2.80;;;0.90;;
71969;SDS011;59838;52.152;5.436;2023-08-17T05:37:43;3.13;;;0.80;;
71969;SDS011;59838;52.152;5.436;2023-08-17T05:40:10;5.15;;;1.10;;
71969;SDS011;59838;52.152;5.436;2023-08-17T05:42:37;3.75;;;1.15;;
71969;SDS011;59838;52.152;5.436;2023-08-17T05:45:04;3.25;;;0.80;;
71969;SDS011;59838;52.152;5.436;2023-08-17T05:47:30;2.88;;;0.80;;
71969;SDS011;59838;52.152;5.436;2023-08-17T05:49:57;1.67;;;0.50;;
71969;SDS011;59838;52.152;5.436;2023-08-17T05:52:24;3.22;;;0.50;;
71969;SDS011;59838;52.152;5.436;2023-08-17T05:54:50;2.88;;;1.02;;
71969;SDS011;59838;52.152;5.436;2023-08-17T05:57:17;1.33;;;0.77;;
71969;SDS011;59838;52.152;5.436;2023-08-17T05:59:43;5.00;;;0.70;;
71969;SDS011;59838;52.152;5.436;2023-08-17T06:02:10;1.53;;;0.77;;
71969;SDS011;59838;52.152;5.436;2023-08-17T06:04:36;3.40;;;0.60;;
71969;SDS011;59838;52.152;5.436;2023-08-17T06:07:03;3.63;;;1.25;;
71969;SDS011;59838;52.152;5.436;2023-08-17T06:09:30;1.88;;;0.80;;
71969;SDS011;59838;52.152;5.436;2023-08-17T06:11:56;3.88;;;1.05;;
71969;SDS011;59838;52.152;5.436;2023-08-17T06:14:23;3.07;;;0.90;;
71969;SDS011;59838;52.152;5.436;2023-08-17T06:16:49;3.75;;;1.02;;
71969;SDS011;59838;52.152;5.436;2023-08-17T06:19:16;3.17;;;1.10;;
71969;SDS011;59838;52.152;5.436;2023-08-17T06:21:42;2.40;;;0.90;;
71969;SDS011;59838;52.152;5.436;2023-08-17T06:24:09;3.28;;;1.23;;
71969;SDS011;59838;52.152;5.436;2023-08-17T06:26:35;4.73;;;0.90;;
71969;SDS011;59838;52.152;5.436;2023-08-17T06:29:02;6.75;;;1.20;;
71969;SDS011;59838;52.152;5.436;2023-08-17T06:31:29;3.33;;;0.70;;
71969;SDS011;59838;52.152;5.436;2023-08-17T06:33:56;9.05;;;1.40;;
71969;SDS011;59838;52.152;5.436;2023-08-17T06:36:23;1.70;;;1.10;;
71969;SDS011;59838;52.152;5.436;2023-08-17T06:38:49;9.40;;;1.33;;
71969;SDS011;59838;52.152;5.436;2023-08-17T06:41:16;4.13;;;1.30;;
71969;SDS011;59838;52.152;5.436;2023-08-17T06:43:44;4.05;;;0.90;;
71969;SDS011;59838;52.152;5.436;2023-08-17T06:46:11;3.45;;;1.15;;
71969;SDS011;59838;52.152;5.436;2023-08-17T06:48:37;5.40;;;1.10;;
71969;SDS011;59838;52.152;5.436;2023-08-17T06:51:03;9.00;;;1.27;;
71969;SDS011;59838;52.152;5.436;2023-08-17T06:53:31;8.57;;;0.93;;
71969;SDS011;59838;52.152;5.436;2023-08-17T06:55:57;4.25;;;1.50;;
71969;SDS011;59838;52.152;5.436;2023-08-17T06:58:27;2.20;;;0.80;;
71969;SDS011;59838;52.152;5.436;2023-08-17T07:00:54;5.28;;;1.00;;
71969;SDS011;59838;52.152;5.436;2023-08-17T07:03:20;8.10;;;1.03;;
71969;SDS011;59838;52.152;5.436;2023-08-17T07:05:47;3.03;;;1.40;;
71969;SDS011;59838;52.152;5.436;2023-08-17T07:08:14;5.70;;;1.30;;
71969;SDS011;59838;52.152;5.436;2023-08-17T07:10:40;2.38;;;0.57;;
71969;SDS011;59838;52.152;5.436;2023-08-17T07:13:07;3.72;;;1.17;;
71969;SDS011;59838;52.152;5.436;2023-08-17T07:15:33;4.07;;;1.20;;
71969;SDS011;59838;52.152;5.436;2023-08-17T07:18:00;5.80;;;1.05;;
71969;SDS011;59838;52.152;5.436;2023-08-17T07:20:26;4.55;;;0.80;;
71969;SDS011;59838;52.152;5.436;2023-08-17T07:22:53;2.65;;;1.08;;
71969;SDS011;59838;52.152;5.436;2023-08-17T07:25:19;6.97;;;1.08;;
71969;SDS011;59838;52.152;5.436;2023-08-17T07:27:46;1.97;;;0.67;;
71969;SDS011;59838;52.152;5.436;2023-08-17T07:30:13;5.78;;;0.95;;
71969;SDS011;59838;52.152;5.436;2023-08-17T07:32:39;5.35;;;1.20;;
71969;SDS011;59838;52.152;5.436;2023-08-17T07:35:06;4.30;;;0.93;;
71969;SDS011;59838;52.152;5.436;2023-08-17T07:37:33;1.65;;;1.00;;
71969;SDS011;59838;52.152;5.436;2023-08-17T07:40:00;5.40;;;1.00;;
71969;SDS011;59838;52.152;5.436;2023-08-17T07:42:29;2.58;;;1.00;;
71969;SDS011;59838;52.152;5.436;2023-08-17T07:44:56;7.35;;;1.30;;
71969;SDS011;59838;52.152;5.436;2023-08-17T07:47:23;4.38;;;0.70;;
71969;SDS011;59838;52.152;5.436;2023-08-17T07:49:49;4.03;;;1.33;;
71969;SDS011;59838;52.152;5.436;2023-08-17T07:52:16;3.87;;;0.70;;
71969;SDS011;59838;52.152;5.436;2023-08-17T07:54:42;2.03;;;0.88;;
71969;SDS011;59838;52.152;5.436;2023-08-17T07:57:09;6.45;;;1.55;;
71969;SDS011;59838;52.152;5.436;2023-08-17T07:59:35;4.65;;;1.23;;
71969;SDS011;59838;52.152;5.436;2023-08-17T08:02:02;2.78;;;1.00;;
71969;SDS011;59838;52.152;5.436;2023-08-17T08:04:28;2.37;;;1.00;;
71969;SDS011;59838;52.152;5.436;2023-08-17T08:06:55;4.93;;;1.45;;
71969;SDS011;59838;52.152;5.436;2023-08-17T08:09:21;3.38;;;1.33;;
71969;SDS011;59838;52.152;5.436;2023-08-17T08:11:48;8.45;;;1.42;;
71969;SDS011;59838;52.152;5.436;2023-08-17T08:14:14;3.35;;;0.93;;
71969;SDS011;59838;52.152;5.436;2023-08-17T08:16:41;4.10;;;1.27;;
71969;SDS011;59838;52.152;5.436;2023-08-17T08:19:07;2.20;;;1.00;;
71969;SDS011;59838;52.152;5.436;2023-08-17T08:21:34;3.25;;;1.00;;
71969;SDS011;59838;52.152;5.436;2023-08-17T08:24:00;3.55;;;0.70;;
71969;SDS011;59838;52.152;5.436;2023-08-17T08:26:27;4.75;;;1.02;;
71969;SDS011;59838;52.152;5.436;2023-08-17T08:28:53;2.57;;;0.73;;
71969;SDS011;59838;52.152;5.436;2023-08-17T08:31:20;3.97;;;0.95;;
71969;SDS011;59838;52.152;5.436;2023-08-17T08:33:46;6.43;;;1.20;;
71969;SDS011;59838;52.152;5.436;2023-08-17T08:36:13;3.38;;;0.75;;
71969;SDS011;59838;52.152;5.436;2023-08-17T08:38:39;4.65;;;1.15;;
71969;SDS011;59838;52.152;5.436;2023-08-17T08:41:06;4.47;;;0.80;;
71969;SDS011;59838;52.152;5.436;2023-08-17T08:43:35;3.65;;;0.90;;
71969;SDS011;59838;52.152;5.436;2023-08-17T08:46:02;8.05;;;1.80;;
71969;SDS011;59838;52.152;5.436;2023-08-17T08:48:29;4.55;;;1.00;;
71969;SDS011;59838;52.152;5.436;2023-08-17T08:50:59;3.42;;;1.02;;
71969;SDS011;59838;52.152;5.436;2023-08-17T08:53:37;5.03;;;0.90;;
71969;SDS011;59838;52.152;5.436;2023-08-17T08:56:06;3.75;;;0.90;;
71969;SDS011;59838;52.152;5.436;2023-08-17T08:58:35;4.18;;;0.90;;
71969;SDS011;59838;52.152;5.436;2023-08-17T09:01:02;4.95;;;0.90;;
71969;SDS011;59838;52.152;5.436;2023-08-17T09:03:34;2.30;;;1.10;;
71969;SDS011;59838;52.152;5.436;2023-08-17T09:06:01;4.10;;;0.70;;
71969;SDS011;59838;52.152;5.436;2023-08-17T09:08:30;8.10;;;0.95;;
71969;SDS011;59838;52.152;5.436;2023-08-17T09:10:57;1.98;;;0.73;;
71969;SDS011;59838;52.152;5.436;2023-08-17T09:13:23;9.13;;;1.15;;
71969;SDS011;59838;52.152;5.436;2023-08-17T09:15:50;2.42;;;0.80;;
71969;SDS011;59838;52.152;5.436;2023-08-17T09:18:17;5.00;;;1.00;;
71969;SDS011;59838;52.152;5.436;2023-08-17T09:20:45;5.63;;;1.00;;
71969;SDS011;59838;52.152;5.436;2023-08-17T09:23:16;3.17;;;1.13;;
71969;SDS011;59838;52.152;5.436;2023-08-17T09:25:46;2.60;;;1.20;;
71969;SDS011;59838;52.152;5.436;2023-08-17T09:28:14;3.10;;;1.05;;
71969;SDS011;59838;52.152;5.436;2023-08-17T09:33:26;2.40;;;0.95;;
71969;SDS011;59838;52.152;5.436;2023-08-17T09:35:54;5.97;;;1.30;;
71969;SDS011;59838;52.152;5.436;2023-08-17T09:38:25;5.57;;;1.67;;
71969;SDS011;59838;52.152;5.436;2023-08-17T09:40:52;2.88;;;1.20;;
71969;SDS011;59838;52.152;5.436;2023-08-17T09:43:19;5.73;;;1.00;;
71969;SDS011;59838;52.152;5.436;2023-08-17T09:45:47;3.72;;;1.35;;
71969;SDS011;59838;52.152;5.436;2023-08-17T09:48:16;4.97;;;0.88;;
71969;SDS011;59838;52.152;5.436;2023-08-17T09:50:44;6.53;;;1.10;;
71969;SDS011;59838;52.152;5.436;2023-08-17T09:53:15;6.90;;;1.10;;
71969;SDS011;59838;52.152;5.436;2023-08-17T09:55:43;5.70;;;1.33;;
71969;SDS011;59838;52.152;5.436;2023-08-17T09:58:14;4.88;;;1.30;;
71969;SDS011;59838;52.152;5.436;2023-08-17T10:00:48;4.50;;;1.50;;
71969;SDS011;59838;52.152;5.436;2023-08-17T10:03:17;4.53;;;1.60;;
71969;SDS011;59838;52.152;5.436;2023-08-17T10:05:48;8.23;;;1.50;;
71969;SDS011;59838;52.152;5.436;2023-08-17T10:08:22;7.43;;;1.43;;
71969;SDS011;59838;52.152;5.436;2023-08-17T10:10:49;3.08;;;1.50;;
71969;SDS011;59838;52.152;5.436;2023-08-17T10:13:26;2.28;;;1.27;;
71969;SDS011;59838;52.152;5.436;2023-08-17T10:16:00;6.78;;;2.03;;
71969;SDS011;59838;52.152;5.436;2023-08-17T10:18:35;5.68;;;1.40;;
71969;SDS011;59838;52.152;5.436;2023-08-17T10:21:02;4.73;;;1.97;;
71969;SDS011;59838;52.152;5.436;2023-08-17T10:23:32;6.50;;;1.45;;
71969;SDS011;59838;52.152;5.436;2023-08-17T10:26:00;4.75;;;1.45;;
71969;SDS011;59838;52.152;5.436;2023-08-17T10:28:29;6.13;;;1.17;;
71969;SDS011;59838;52.152;5.436;2023-08-17T10:30:57;3.45;;;1.40;;
71969;SDS011;59838;52.152;5.436;2023-08-17T10:33:24;3.40;;;1.30;;
71969;SDS011;59838;52.152;5.436;2023-08-17T10:35:52;6.70;;;1.40;;
71969;SDS011;59838;52.152;5.436;2023-08-17T10:38:19;7.28;;;1.55;;
71969;SDS011;59838;52.152;5.436;2023-08-17T10:40:45;5.50;;;1.48;;
71969;SDS011;59838;52.152;5.436;2023-08-17T10:43:55;3.65;;;1.38;;
71969;SDS011;59838;52.152;5.436;2023-08-17T10:46:31;3.03;;;1.10;;
71969;SDS011;59838;52.152;5.436;2023-08-17T10:49:03;6.65;;;1.48;;
71969;SDS011;59838;52.152;5.436;2023-08-17T10:51:31;4.32;;;1.30;;
71969;SDS011;59838;52.152;5.436;2023-08-17T10:53:59;4.68;;;1.15;;
71969;SDS011;59838;52.152;5.436;2023-08-17T10:56:29;4.22;;;1.58;;
71969;SDS011;59838;52.152;5.436;2023-08-17T10:58:59;3.73;;;1.43;;
71969;SDS011;59838;52.152;5.436;2023-08-17T11:01:31;2.92;;;1.33;;
71969;SDS011;59838;52.152;5.436;2023-08-17T11:04:08;8.77;;;1.55;;
71969;SDS011;59838;52.152;5.436;2023-08-17T11:06:37;4.45;;;1.30;;
71969;SDS011;59838;52.152;5.436;2023-08-17T11:09:07;4.50;;;1.40;;
71969;SDS011;59838;52.152;5.436;2023-08-17T11:11:34;3.17;;;1.30;;
71969;SDS011;59838;52.152;5.436;2023-08-17T11:14:01;6.95;;;2.35;;
71969;SDS011;59838;52.152;5.436;2023-08-17T11:16:27;7.05;;;1.92;;
71969;SDS011;59838;52.152;5.436;2023-08-17T11:18:54;3.80;;;1.52;;
71969;SDS011;59838;52.152;5.436;2023-08-17T11:21:23;4.38;;;2.25;;
71969;SDS011;59838;52.152;5.436;2023-08-17T11:23:50;4.80;;;2.37;;
71969;SDS011;59838;52.152;5.436;2023-08-17T11:26:17;4.85;;;2.20;;
71969;SDS011;59838;52.152;5.436;2023-08-17T11:28:45;6.05;;;2.47;;
71969;SDS011;59838;52.152;5.436;2023-08-17T11:31:12;4.25;;;1.80;;
71969;SDS011;59838;52.152;5.436;2023-08-17T11:33:40;8.02;;;2.13;;
71969;SDS011;59838;52.152;5.436;2023-08-17T11:36:07;5.47;;;2.03;;
71969;SDS011;59838;52.152;5.436;2023-08-17T11:38:38;2.88;;;1.30;;
71969;SDS011;59838;52.152;5.436;2023-08-17T11:41:07;5.38;;;1.63;;
71969;SDS011;59838;52.152;5.436;2023-08-17T11:43:35;3.97;;;1.85;;
71969;SDS011;59838;52.152;5.436;2023-08-17T11:46:02;10.88;;;2.25;;
71969;SDS011;59838;52.152;5.436;2023-08-17T11:48:30;4.37;;;1.93;;
71969;SDS011;59838;52.152;5.436;2023-08-17T11:51:02;4.93;;;1.90;;
71969;SDS011;59838;52.152;5.436;2023-08-17T11:53:38;7.53;;;2.33;;
71969;SDS011;59838;52.152;5.436;2023-08-17T11:56:06;3.70;;;1.83;;
71969;SDS011;59838;52.152;5.436;2023-08-17T11:58:39;5.57;;;1.70;;
71969;SDS011;59838;52.152;5.436;2023-08-17T12:01:11;7.00;;;1.83;;
71969;SDS011;59838;52.152;5.436;2023-08-17T12:03:38;4.88;;;1.60;;
71969;SDS011;59838;52.152;5.436;2023-08-17T12:06:07;6.55;;;2.28;;
71969;SDS011;59838;52.152;5.436;2023-08-17T12:08:34;4.70;;;1.95;;
71969;SDS011;59838;52.152;5.436;2023-08-17T12:11:04;5.03;;;2.10;;
71969;SDS011;59838;52.152;5.436;2023-08-17T12:13:34;4.23;;;1.87;;
71969;SDS011;59838;52.152;5.436;2023-08-17T12:16:01;6.45;;;2.00;;
71969;SDS011;59838;52.152;5.436;2023-08-17T12:18:31;5.32;;;1.98;;
71969;SDS011;59838;52.152;5.436;2023-08-17T12:20:59;6.50;;;2.13;;
71969;SDS011;59838;52.152;5.436;2023-08-17T12:23:26;5.68;;;2.03;;
71969;SDS011;59838;52.152;5.436;2023-08-17T12:25:56;3.73;;;1.83;;
71969;SDS011;59838;52.152;5.436;2023-08-17T12:28:23;6.10;;;2.20;;
71969;SDS011;59838;52.152;5.436;2023-08-17T12:31:01;5.22;;;2.17;;
71969;SDS011;59838;52.152;5.436;2023-08-17T12:33:28;3.72;;;1.85;;
71969;SDS011;59838;52.152;5.436;2023-08-17T12:35:55;3.65;;;1.70;;
71969;SDS011;59838;52.152;5.436;2023-08-17T12:38:23;4.07;;;2.00;;
71969;SDS011;59838;52.152;5.436;2023-08-17T12:40:51;3.13;;;2.10;;
71969;SDS011;59838;52.152;5.436;2023-08-17T12:43:17;3.30;;;1.83;;
71969;SDS011;59838;52.152;5.436;2023-08-17T12:45:44;6.40;;;2.15;;
71969;SDS011;59838;52.152;5.436;2023-08-17T12:48:10;4.18;;;2.33;;
71969;SDS011;59838;52.152;5.436;2023-08-17T12:50:37;5.27;;;1.90;;
71969;SDS011;59838;52.152;5.436;2023-08-17T12:53:08;4.85;;;1.90;;
71969;SDS011;59838;52.152;5.436;2023-08-17T12:55:35;4.70;;;1.90;;
71969;SDS011;59838;52.152;5.436;2023-08-17T12:58:01;2.47;;;1.77;;
71969;SDS011;59838;52.152;5.436;2023-08-17T13:00:28;4.03;;;1.75;;
71969;SDS011;59838;52.152;5.436;2023-08-17T13:02:54;5.00;;;1.80;;
71969;SDS011;59838;52.152;5.436;2023-08-17T13:05:21;3.35;;;1.67;;
71969;SDS011;59838;52.152;5.436;2023-08-17T13:07:47;2.88;;;1.90;;
71969;SDS011;59838;52.152;5.436;2023-08-17T13:10:14;3.03;;;2.13;;
71969;SDS011;59838;52.152;5.436;2023-08-17T13:12:40;3.30;;;1.60;;
71969;SDS011;59838;52.152;5.436;2023-08-17T13:15:07;7.43;;;2.50;;
71969;SDS011;59838;52.152;5.436;2023-08-17T13:17:34;4.45;;;2.00;;
71969;SDS011;59838;52.152;5.436;2023-08-17T13:20:00;8.02;;;3.95;;
71969;SDS011;59838;52.152;5.436;2023-08-17T13:22:27;9.80;;;2.55;;
71969;SDS011;59838;52.152;5.436;2023-08-17T13:24:54;8.35;;;2.17;;
71969;SDS011;59838;52.152;5.436;2023-08-17T13:27:21;5.57;;;2.40;;
71969;SDS011;59838;52.152;5.436;2023-08-17T13:29:47;5.28;;;2.40;;
71969;SDS011;59838;52.152;5.436;2023-08-17T13:32:14;5.53;;;2.33;;
71969;SDS011;59838;52.152;5.436;2023-08-17T13:34:40;4.03;;;2.17;;
71969;SDS011;59838;52.152;5.436;2023-08-17T13:37:06;3.63;;;1.70;;
71969;SDS011;59838;52.152;5.436;2023-08-17T13:39:33;4.20;;;1.83;;
71969;SDS011;59838;52.152;5.436;2023-08-17T13:41:59;3.13;;;1.73;;
71969;SDS011;59838;52.152;5.436;2023-08-17T13:44:26;5.28;;;1.63;;
71969;SDS011;59838;52.152;5.436;2023-08-17T13:46:52;4.05;;;2.00;;
71969;SDS011;59838;52.152;5.436;2023-08-17T13:49:19;6.72;;;2.20;;
71969;SDS011;59838;52.152;5.436;2023-08-17T13:51:46;3.73;;;1.87;;
71969;SDS011;59838;52.152;5.436;2023-08-17T13:54:12;4.47;;;1.80;;
71969;SDS011;59838;52.152;5.436;2023-08-17T13:56:39;4.78;;;1.50;;
71969;SDS011;59838;52.152;5.436;2023-08-17T13:59:05;3.80;;;1.67;;
71969;SDS011;59838;52.152;5.436;2023-08-17T14:01:32;4.28;;;2.10;;
71969;SDS011;59838;52.152;5.436;2023-08-17T14:03:59;4.43;;;2.93;;
71969;SDS011;59838;52.152;5.436;2023-08-17T14:06:27;3.22;;;1.70;;
71969;SDS011;59838;52.152;5.436;2023-08-17T14:08:53;3.97;;;2.00;;
71969;SDS011;59838;52.152;5.436;2023-08-17T14:11:22;4.15;;;1.85;;
71969;SDS011;59838;52.152;5.436;2023-08-17T14:13:48;2.20;;;1.80;;
71969;SDS011;59838;52.152;5.436;2023-08-17T14:16:15;4.90;;;2.23;;
71969;SDS011;59838;52.152;5.436;2023-08-17T14:18:41;5.00;;;2.28;;
71969;SDS011;59838;52.152;5.436;2023-08-17T14:21:08;3.85;;;2.40;;
71969;SDS011;59838;52.152;5.436;2023-08-17T14:23:34;4.03;;;1.98;;
71969;SDS011;59838;52.152;5.436;2023-08-17T14:26:01;3.20;;;2.28;;
71969;SDS011;59838;52.152;5.436;2023-08-17T14:28:27;6.10;;;2.23;;
71969;SDS011;59838;52.152;5.436;2023-08-17T14:30:54;6.07;;;2.45;;
71969;SDS011;59838;52.152;5.436;2023-08-17T14:33:20;4.88;;;2.63;;
71969;SDS011;59838;52.152;5.436;2023-08-17T14:35:47;4.40;;;2.63;;
71969;SDS011;59838;52.152;5.436;2023-08-17T14:38:14;3.65;;;2.80;;
71969;SDS011;59838;52.152;5.436;2023-08-17T14:40:44;8.93;;;2.83;;
71969;SDS011;59838;52.152;5.436;2023-08-17T14:43:12;5.65;;;2.80;;
71969;SDS011;59838;52.152;5.436;2023-08-17T14:45:42;3.85;;;3.00;;
71969;SDS011;59838;52.152;5.436;2023-08-17T14:48:09;4.15;;;2.80;;
71969;SDS011;59838;52.152;5.436;2023-08-17T14:50:36;8.73;;;2.92;;
71969;SDS011;59838;52.152;5.436;2023-08-17T14:53:04;8.83;;;2.87;;
71969;SDS011;59838;52.152;5.436;2023-08-17T14:55:34;4.50;;;2.78;;
71969;SDS011;59838;52.152;5.436;2023-08-17T14:58:00;4.80;;;3.00;;